• Join FlightAware (Why Join?)
  • Login
  • US Flag 
08:27AM EDT


 

Airport Tracker/Info


-or-


 

Live Flight TrackerFlight Track Log ✈ SWA2519 ✈ 12-Apr-2013 ✈ KOAK - KBUR

Flight Track Log - Related Links

Times and Time Zones

All times are in EDT time to prevent confusion due to time zone crossing. See the SWA2519 flight status page for this flight to view local times or setup timezone preferences in your user account.

Time Position Orientation Groundspeed Altitude Reporting Facility
EDT Latitude Longitude Course Direction KTS MPH feet Rate Location/Type
07:13PM 37.7500 -122.2833 150° Southeast 197 227 2,600  Level Northern Cal TRACON
07:14PM 37.7500 -122.3500 270° West 229 264 5,600 2,940 Climbing Northern Cal TRACON
07:16PM 37.6803 -122.3739 195° South 231 266 9,000 3,000 Climbing Oakland Center
07:17PM 37.6094 -122.3689 177° South 255 293 12,200 3,000 Climbing Oakland Center
07:18PM 37.5300 -122.3594 175° South 278 320 15,200 3,000 Climbing Oakland Center
07:19PM 37.2671 -122.3170 150° Southeast  Level FlightAware Approximate
07:19PM 37.4411 -122.2828 146° Southeast 328 377 18,400  Level Oakland Center
07:20PM 37.3575 -122.1931 140° Southeast 377 434 20,100 2,160 Climbing Oakland Center
07:21PM 37.2686 -122.0975 139° Southeast 418 481 22,900 2,460 Climbing Oakland Center
07:22PM 37.1761 -121.9986 140° Southeast 434 499 25,200 2,220 Climbing Oakland Center
07:23PM 37.0797 -121.8958 140° Southeast 451 519 27,500 2,040 Climbing Oakland Center
07:24PM 36.9806 -121.7922 140° Southeast 462 532 29,500 2,040 Climbing Oakland Center
07:25PM 36.8808 -121.6869 140° Southeast 470 541 31,800 1,680 Climbing Oakland Center
07:26PM 36.7814 -121.5831 140° Southeast 467 537 33,000 540 Climbing Oakland Center
07:27PM 36.6628 -121.4583 140° Southeast 466 536 33,000  Level Oakland Center
07:28PM 36.5633 -121.3550 140° Southeast 466 536 33,000  Level Oakland Center
07:29PM 36.4653 -121.2508 139° Southeast 464 534 33,000  Level Oakland Center
07:30PM 36.3653 -121.1497 141° Southeast 464 534 33,000  Level Oakland Center
07:31PM 36.2622 -121.0431 140° Southeast 463 533 33,000  Level Oakland Center
07:32PM 36.1650 -120.9436 140° Southeast 463 533 33,000  Level Oakland Center
07:33PM 36.0647 -120.8433 141° Southeast 464 534 33,000  Level Oakland Center
07:34PM 35.9644 -120.7417 141° Southeast 465 535 33,000  Level Oakland Center
07:35PM 35.8642 -120.6403 141° Southeast 465 535 33,000  Level Oakland Center
07:36PM 35.7650 -120.5372 140° Southeast 465 535 33,000  Level Oakland Center
07:37PM 35.6442 -120.4167 141° Southeast 466 536 33,000  Level Oakland Center
07:38PM 35.5425 -120.3158 141° Southeast 467 537 33,000  Level Oakland Center
07:39PM 35.4428 -120.2136 140° Southeast 467 537 33,000  Level Oakland Center
07:40PM 35.3628 -120.1344 141° Southeast 467 537 33,000 -660 Level Los Angeles Center
07:41PM 35.2617 -120.0333 141° Southeast 466 536 31,800 -2,040 Descending Los Angeles Center
07:42PM 35.1564 -119.9281 141° Southeast 483 556 28,900 -2,580 Descending Los Angeles Center
07:43PM 35.0592 -119.8222 138° Southeast 470 541 26,500 -2,460 Descending Los Angeles Center
07:44PM 34.9592 -119.6839 131° Southeast 452 520 23,800 -2,400 Descending Los Angeles Center
07:45PM 34.8783 -119.5744 132° Southeast 435 501 21,600 -2,160 Descending Los Angeles Center
07:46PM 34.8000 -119.4692 132° Southeast 421 484 19,400 -2,160 Descending Los Angeles Center
07:47PM 34.7228 -119.3683 133° Southeast 408 470 17,200 -2,040 Descending Los Angeles Center
07:48PM 34.6503 -119.2697 132° Southeast 394 453 15,200 -2,040 Descending Los Angeles Center
07:49PM 34.5700 -119.1644 133° Southeast 376 433 13,000 -1,920 Descending Los Angeles Center
07:50PM 34.5025 -119.0731 132° Southeast 366 421 11,300 -1,260 Descending Los Angeles Center
07:51PM 34.4414 -118.9939 133° Southeast 319 367 10,500 -1,080 Descending Los Angeles Center
07:52PM 34.3858 -118.9197 132° Southeast 300 345 9,100 -1,500 Descending Los Angeles Center
07:53PM 34.3097 -118.8508 143° Southeast 287 330 7,400 -1,560 Descending Los Angeles Center
07:55PM 34.2561 -118.7861 135° Southeast 299 344 5,900 -1,440 Descending Los Angeles Center
07:56PM 34.2292 -118.7006 111° Southeast 279 321 4,500 -960 Descending Los Angeles Center
07:57PM 34.2019 -118.6156 111° Southeast 274 315 4,000 -600 Descending Los Angeles Center
07:57PM 34.2000 -118.5667 93° East 233 268 3,600 -720 Descending Southern California TRACON
07:58PM 34.2000 -118.4833 90° East 207 238 2,900 -780 Descending Southern California TRACON
07:59PM 34.2000 -118.4333 90° East 167 192 2,000 -960 Descending Southern California TRACON
08:00PM 34.2000 -118.3833 90° East 130 150 1,100 -720 Descending Southern California TRACON
08:01PM 34.1992 -118.3664 93° East 164 189 1,000 -180 Descending Los Angeles Center
08:03PM 34.2000 -118.3500 140° Southeast  Level FlightAware Approximate